Weather observations for the past three days for
Rock Springs, Rock Springs-Sweetwater County Airport
Imperial (Metric)
Date Time (mdt) Wind (mph) Vis. (mi.) Weather Sky Cond. Temperature (ºF) Relative Humidity Wind Chill (°F) Heat Index (°F) Pressure Precipitation (in)
Air Dwpt 6 hour altimeter (in) sea level (mb) 1 hr 3 hr 6 hr
Max. Min.
10 05:54 SE 6 10.00 Fair CLR 34 27 42.1 34 76% 29 30.32 1023.1
10 04:54 Calm 10.00 Fair CLR 37 28 70% 30.31 1021.6
10 03:54 NE 5 10.00 Fair CLR 37 28 70% 34 30.3 1021.2
10 02:54 E 5 10.00 Fair CLR 39 28 65% 36 30.28 1020.4
10 01:54 SE 8 10.00 Fair CLR 39.9 28.9 65% 35 30.27 1020.1
10 00:54 E 3 10.00 Fair CLR 42.1 30 62% 30.27 1020.1
09 23:54 SE 5 10.00 Fair CLR 41 30 62.1 41 65% 38 30.26 1019.9
09 22:54 E 7 10.00 Fair CLR 41 30 65% 37 30.25 1019.7
09 21:54 E 12 10.00 Fair CLR 44.1 30.9 60% 39 30.23 1019.2
09 20:54 E 13 10.00 Fair CLR 46 30.9 56% 41 30.2 1018.2
09 19:54 E 21 G 28 10.00 Overcast and Breezy OVC110 48.9 30.9 50% 43 30.17 1017.5
09 18:54 NE 23 G 31 10.00 Overcast and Breezy OVC100 51.1 32 48% 30.14 1016.7
09 17:54 NW 23 G 33 10.00 Overcast and Breezy OVC100 62.1 15.1 68 61 16% 30.08 1013.1
09 16:54 W 29 G 44 10.00 Fair and Windy CLR 66.9 15.1 13% 30.06 1011.5
09 15:54 W 24 G 39 10.00 Fair and Breezy CLR 66.9 10 11% 30.06 1011.4
09 14:54 W 24 G 38 10.00 A Few Clouds and Breezy FEW110 66.9 12.9 12% 30.07 1011.5
09 13:54 SW 21 G 36 10.00 Fair and Breezy CLR 66 16 14% 30.08 1011.7
09 12:54 W 28 G 35 10.00 Fair and Windy CLR 64 18 17% 30.1 1012.7
09 11:54 W 20 G 31 10.00 Fair CLR 62.1 19.9 62.1 45 20% 30.1 1013.1
09 10:54 NW 8 G 23 10.00 Fair CLR 60.1 19.9 21% 30.11 1013.5
09 09:54 W 16 G 28 10.00 Fair CLR 57 21 25% 30.11 1013.6
09 08:54 W 20 G 26 10.00 Fair CLR 53.1 21 28% 30.11 1013.7
09 07:54 W 15 10.00 Fair CLR 48.9 21 33% 44 30.11 1013.5
09 06:54 SW 15 10.00 Fair CLR 45 23 42% 39 30.08 1012.9
09 05:54 SW 14 10.00 Fair CLR 45 24.1 53.1 44.1 44% 39 30.06 1011.7
09 04:54 SW 10 10.00 Fair CLR 46.9 21 36% 43 30.04 1010.9
09 03:54 SW 10 10.00 Fair CLR 48 21 34% 44 30.04 1010.3
09 02:54 W 12 10.00 Fair CLR 50 24.1 36% 46 30.04 1010.3
09 01:54 W 13 10.00 Fair CLR 51.1 25 36% 30.04 1010.4
09 00:54 W 14 10.00 Fair CLR 52 26.1 37% 30.04 1010.9
08 23:54 W 13 10.00 Fair CLR 52 26.1 66.9 52 37% 30.05 1011.4
08 22:54 W 14 10.00 Fair CLR 54 26.1 34% 30.05 1011.9
08 21:54 W 17 10.00 Fair CLR 57 26.1 30% 30.05 1011.6
08 20:54 W 21 G 30 10.00 Fair and Breezy CLR 57.9 24.1 27% 30.02 1011.3
08 19:54 W 21 G 33 10.00 Fair and Breezy CLR 62.1 23 22% 30 1010.6
08 18:54 W 25 G 38 10.00 Fair and Breezy CLR 64 21.9 20% 29.99 1010.5
08 17:54 W 21 G 39 10.00 Fair and Breezy CLR 66.9 19 70 60.1 16% 29.99 1010.5
08 16:54 SW 25 G 35 10.00 Fair and Breezy CLR 69.1 19.9 15% 29.99 1009.9
08 15:54 W 13 G 29 10.00 Fair CLR 69.1 23 17% 30 1010.2
08 14:54 W 16 G 30 10.00 Fair CLR 68 21 17% 30.03 1010.9
08 13:54 W 13 G 25 10.00 Fair CLR 66 24.1 20% 30.04 1011.0
08 12:54 W 17 G 25 10.00 Fair CLR 64 26.1 24% 30.06 1012.3
08 11:54 W 10 G 22 10.00 Fair CLR 61 28.9 61 36 30% 30.09 1013.0
08 10:54 W 9 10.00 Fair CLR 55 32 42% 30.1 1014.0
08 09:54 S 5 10.00 Fair CLR 52 34 50% 30.1 1014.2
08 08:54 E 5 10.00 Fair CLR 48 36 63% 47 30.11 1014.4
08 07:54 E 5 10.00 Fair CLR 43 37 80% 41 30.1 1014.5
08 06:54 S 7 10.00 Fair CLR 39 35.1 86% 35 30.09 1014.4
08 05:54 E 5 10.00 Fair CLR 36 33.1 50 36 89% 33 30.09 1014.3
08 04:54 NE 8 10.00 Fair CLR 37.9 34 86% 33 30.09 1014.1
08 03:54 E 7 10.00 Fair CLR 37.9 35.1 89% 33 30.07 1013.5
08 02:54 NE 10 10.00 Fair CLR 41 28 60% 35 30.07 1013.0
08 01:54 NE 5 10.00 Fair CLR 46.9 21.9 37% 45 30.06 1011.7
08 00:54 NE 6 10.00 Fair CLR 46 21.9 38% 44 30.06 1012.2
07 23:54 W 3 10.00 Fair CLR 48 23 63 46.9 37% 30.05 1012.2
07 22:54 W 15 10.00 Fair CLR 51.1 21.9 32% 30.04 1011.6
07 21:54 W 18 10.00 Fair CLR 53.1 19.9 27% 30.04 1012.0
07 20:54 W 21 G 30 10.00 Fair and Breezy CLR 55 21.9 28% 30.02 1011.5
07 19:54 W 21 G 31 10.00 Fair and Breezy CLR 57.9 25 28% 30 1010.7
07 18:54 W 26 G 36 10.00 A Few Clouds and Windy FEW100 60.1 27 28% 30 1010.4
07 17:54 W 28 G 39 10.00 A Few Clouds and Windy FEW100 63 26.1 66 57.9 25% 29.99 1009.9
07 16:54 W 26 G 40 10.00 Fair and Windy CLR 63 19 18% 29.99 1009.9
07 15:54 W 25 G 39 10.00 A Few Clouds and Breezy FEW085 63 24.1 23% 30 1010.3
07 14:54 W 24 G 32 10.00 Partly Cloudy and Breezy SCT080 SCT110 64.9 26.1 23% 30.01 1010.7
07 13:54 W 22 G 36 10.00 Fair and Breezy CLR 66 30 26% 30.03 1010.9
07 12:54 W 20 G 30 10.00 Fair CLR 62.1 28 28% 30.05 1012.3
07 11:54 W 23 G 32 10.00 A Few Clouds and Breezy FEW110 57.9 33.1 61 43 39% 30.08 1013.4
07 10:54 W 24 G 37 10.00 Fair and Breezy CLR 57.9 34 41% 30.08 1013.7
07 09:54 W 12 10.00 Fair CLR 50 32 50% 46 30.12 1016.0
07 08:54 W 13 10.00 Fair CLR 46.9 28.9 50% 42 30.12 1016.5
07 07:54 SW 12 10.00 A Few Clouds FEW075 45 27 49% 40 30.12 1016.1
07 06:54 W 12 10.00 Fair CLR 45 25 46% 40 30.1 1015.3
Date Time (mdt) Wind (mph) Vis. (mi.) Weather Sky Cond. Air Dwpt Max. Min. Relative Humidity Wind Chill (°F) Heat Index (°F) altimeter (in) sea level (mb) 1 hr 3 hr 6 hr
6 hour
Temperature (ºF) Pressure Precipitation (in)